sensor_id;sensor_type;location;lat;lon;timestamp;pressure;altitude;pressure_sealevel;temperature;humidity
31121;BME280;17770;45.966;13.632;2023-04-15T00:00:57;99558.63;;;16.87;55.02
31121;BME280;17770;45.966;13.632;2023-04-15T00:03:24;99556.00;;;16.87;55.13
31121;BME280;17770;45.966;13.632;2023-04-15T00:05:50;99559.66;;;16.85;54.73
31121;BME280;17770;45.966;13.632;2023-04-15T00:08:16;99555.31;;;16.85;54.64
31121;BME280;17770;45.966;13.632;2023-04-15T00:10:43;99553.50;;;16.86;55.29
31121;BME280;17770;45.966;13.632;2023-04-15T00:13:11;99553.63;;;16.84;54.63
31121;BME280;17770;45.966;13.632;2023-04-15T00:15:36;99550.09;;;16.85;54.61
31121;BME280;17770;45.966;13.632;2023-04-15T00:18:02;99544.16;;;16.83;54.81
31121;BME280;17770;45.966;13.632;2023-04-15T00:20:28;99545.81;;;16.84;54.68
31121;BME280;17770;45.966;13.632;2023-04-15T00:22:54;99553.72;;;16.83;54.65
31121;BME280;17770;45.966;13.632;2023-04-15T00:25:20;99552.81;;;16.84;54.91
31121;BME280;17770;45.966;13.632;2023-04-15T00:27:46;99547.69;;;16.82;55.00
31121;BME280;17770;45.966;13.632;2023-04-15T00:30:14;99545.91;;;16.83;55.32
31121;BME280;17770;45.966;13.632;2023-04-15T00:32:39;99548.63;;;16.81;54.80
31121;BME280;17770;45.966;13.632;2023-04-15T00:35:07;99550.28;;;16.82;54.54
31121;BME280;17770;45.966;13.632;2023-04-15T00:37:33;99551.22;;;16.81;54.70
31121;BME280;17770;45.966;13.632;2023-04-15T00:40:00;99542.56;;;16.81;54.77
31121;BME280;17770;45.966;13.632;2023-04-15T00:42:25;99542.56;;;16.81;54.72
31121;BME280;17770;45.966;13.632;2023-04-15T00:44:52;99540.81;;;16.81;54.63
31121;BME280;17770;45.966;13.632;2023-04-15T00:47:18;99541.66;;;16.82;55.04
31121;BME280;17770;45.966;13.632;2023-04-15T00:49:44;99535.72;;;16.80;54.86
31121;BME280;17770;45.966;13.632;2023-04-15T00:52:10;99535.81;;;16.78;55.25
31121;BME280;17770;45.966;13.632;2023-04-15T00:54:36;99541.88;;;16.79;54.96
31121;BME280;17770;45.966;13.632;2023-04-15T00:57:04;99539.25;;;16.79;55.08
31121;BME280;17770;45.966;13.632;2023-04-15T00:59:30;99536.66;;;16.79;55.06
31121;BME280;17770;45.966;13.632;2023-04-15T01:01:56;99530.59;;;16.78;55.10
31121;BME280;17770;45.966;13.632;2023-04-15T01:04:22;99525.41;;;16.78;54.97
31121;BME280;17770;45.966;13.632;2023-04-15T01:06:48;99531.53;;;16.77;54.98
31121;BME280;17770;45.966;13.632;2023-04-15T01:09:13;99530.59;;;16.78;54.60
31121;BME280;17770;45.966;13.632;2023-04-15T01:11:39;99528.00;;;16.78;55.17
31121;BME280;17770;45.966;13.632;2023-04-15T01:14:07;99522.91;;;16.77;55.19
31121;BME280;17770;45.966;13.632;2023-04-15T01:16:33;99522.06;;;16.76;54.66
31121;BME280;17770;45.966;13.632;2023-04-15T01:18:59;99527.28;;;16.76;55.08
31121;BME280;17770;45.966;13.632;2023-04-15T01:21:25;99520.41;;;16.75;55.00
31121;BME280;17770;45.966;13.632;2023-04-15T01:23:52;99522.91;;;16.77;54.67
31121;BME280;17770;45.966;13.632;2023-04-15T01:26:20;99519.47;;;16.76;55.34
31121;BME280;17770;45.966;13.632;2023-04-15T01:28:46;99516.84;;;16.76;55.07
31121;BME280;17770;45.966;13.632;2023-04-15T01:31:13;99517.81;;;16.75;55.31
31121;BME280;17770;45.966;13.632;2023-04-15T01:33:40;99516.97;;;16.75;55.17
31121;BME280;17770;45.966;13.632;2023-04-15T01:36:07;99518.63;;;16.76;55.19
31121;BME280;17770;45.966;13.632;2023-04-15T01:38:34;99511.88;;;16.73;55.03
31121;BME280;17770;45.966;13.632;2023-04-15T01:41:00;99511.88;;;16.73;55.17
31121;BME280;17770;45.966;13.632;2023-04-15T01:43:26;99506.53;;;16.75;54.74
31121;BME280;17770;45.966;13.632;2023-04-15T01:45:52;99516.22;;;16.73;55.06
31121;BME280;17770;45.966;13.632;2023-04-15T01:48:18;99507.59;;;16.72;54.60
31121;BME280;17770;45.966;13.632;2023-04-15T01:50:44;99514.56;;;16.72;54.78
31121;BME280;17770;45.966;13.632;2023-04-15T01:53:10;99523.31;;;16.71;55.20
31121;BME280;17770;45.966;13.632;2023-04-15T01:55:36;99516.34;;;16.71;55.06
31121;BME280;17770;45.966;13.632;2023-04-15T01:58:02;99516.34;;;16.71;55.13
31121;BME280;17770;45.966;13.632;2023-04-15T02:00:28;99511.13;;;16.71;54.66
31121;BME280;17770;45.966;13.632;2023-04-15T02:02:55;99514.69;;;16.70;55.18
31121;BME280;17770;45.966;13.632;2023-04-15T02:05:23;99517.19;;;16.72;55.01
31121;BME280;17770;45.966;13.632;2023-04-15T02:07:50;99512.06;;;16.70;54.96
31121;BME280;17770;45.966;13.632;2023-04-15T02:10:16;99518.19;;;16.69;55.25
31121;BME280;17770;45.966;13.632;2023-04-15T02:12:42;99513.84;;;16.70;54.97
31121;BME280;17770;45.966;13.632;2023-04-15T02:15:08;99515.59;;;16.69;54.75
31121;BME280;17770;45.966;13.632;2023-04-15T02:17:35;99518.41;;;16.66;54.73
31121;BME280;17770;45.966;13.632;2023-04-15T02:20:01;99520.28;;;16.64;54.80
31121;BME280;17770;45.966;13.632;2023-04-15T02:22:27;99515.81;;;16.66;55.22
31121;BME280;17770;45.966;13.632;2023-04-15T02:24:54;99513.22;;;16.66;54.83
31121;BME280;17770;45.966;13.632;2023-04-15T02:27:20;99516.66;;;16.67;54.86
31121;BME280;17770;45.966;13.632;2023-04-15T02:29:49;99513.31;;;16.65;54.78
31121;BME280;17770;45.966;13.632;2023-04-15T02:32:15;99504.66;;;16.64;55.16
31121;BME280;17770;45.966;13.632;2023-04-15T02:34:41;99507.16;;;16.66;54.94
31121;BME280;17770;45.966;13.632;2023-04-15T02:37:09;99501.94;;;16.66;55.17
31121;BME280;17770;45.966;13.632;2023-04-15T02:39:36;99488.13;;;16.65;55.16
31121;BME280;17770;45.966;13.632;2023-04-15T02:42:02;99479.47;;;16.65;54.69
31121;BME280;17770;45.966;13.632;2023-04-15T02:44:29;99477.72;;;16.65;55.14
31121;BME280;17770;45.966;13.632;2023-04-15T02:46:58;99477.72;;;16.65;54.67
31121;BME280;17770;45.966;13.632;2023-04-15T02:49:24;99487.28;;;16.65;55.27
31121;BME280;17770;45.966;13.632;2023-04-15T02:51:50;99493.44;;;16.64;54.73
31121;BME280;17770;45.966;13.632;2023-04-15T02:54:18;99484.69;;;16.65;55.10
31121;BME280;17770;45.966;13.632;2023-04-15T02:56:44;99488.94;;;16.66;55.03
31121;BME280;17770;45.966;13.632;2023-04-15T02:59:10;99492.59;;;16.63;54.54
31121;BME280;17770;45.966;13.632;2023-04-15T03:01:37;99492.59;;;16.63;54.91
31121;BME280;17770;45.966;13.632;2023-04-15T03:04:02;99483.13;;;16.62;55.25
31121;BME280;17770;45.966;13.632;2023-04-15T03:06:28;99485.63;;;16.64;55.26
31121;BME280;17770;45.966;13.632;2023-04-15T03:08:54;99476.13;;;16.63;54.97
31121;BME280;17770;45.966;13.632;2023-04-15T03:11:21;99484.78;;;16.63;55.10
31121;BME280;17770;45.966;13.632;2023-04-15T03:13:47;99490.94;;;16.62;54.82
31121;BME280;17770;45.966;13.632;2023-04-15T03:16:39;99491.84;;;16.61;54.67
31121;BME280;17770;45.966;13.632;2023-04-15T03:19:05;99486.66;;;16.61;54.87
31121;BME280;17770;45.966;13.632;2023-04-15T03:21:32;99496.16;;;16.62;54.64
31121;BME280;17770;45.966;13.632;2023-04-15T03:23:58;99491.97;;;16.60;55.30
31121;BME280;17770;45.966;13.632;2023-04-15T03:26:28;99503.22;;;16.60;54.85
31121;BME280;17770;45.966;13.632;2023-04-15T03:28:57;99498.00;;;16.60;54.62
31121;BME280;17770;45.966;13.632;2023-04-15T03:31:23;99498.94;;;16.59;55.22
31121;BME280;17770;45.966;13.632;2023-04-15T03:33:49;99496.44;;;16.58;55.02
31121;BME280;17770;45.966;13.632;2023-04-15T03:36:14;99493.72;;;16.59;55.12
31121;BME280;17770;45.966;13.632;2023-04-15T03:38:41;99498.13;;;16.59;54.79
31121;BME280;17770;45.966;13.632;2023-04-15T03:41:07;99509.34;;;16.59;54.76
31121;BME280;17770;45.966;13.632;2023-04-15T03:43:34;99504.25;;;16.58;54.55
31121;BME280;17770;45.966;13.632;2023-04-15T03:46:00;99505.19;;;16.57;54.63
31121;BME280;17770;45.966;13.632;2023-04-15T03:48:26;99498.22;;;16.57;54.71
31121;BME280;17770;45.966;13.632;2023-04-15T03:50:52;99498.22;;;16.57;54.97
31121;BME280;17770;45.966;13.632;2023-04-15T03:53:19;99493.84;;;16.58;54.67
31121;BME280;17770;45.966;13.632;2023-04-15T03:55:45;99502.59;;;16.57;54.78
31121;BME280;17770;45.966;13.632;2023-04-15T03:58:11;99492.19;;;16.57;55.25
31121;BME280;17770;45.966;13.632;2023-04-15T04:00:37;99499.03;;;16.58;54.53
31121;BME280;17770;45.966;13.632;2023-04-15T04:03:03;99495.72;;;16.56;55.05
31121;BME280;17770;45.966;13.632;2023-04-15T04:05:29;99497.50;;;16.55;54.83
31121;BME280;17770;45.966;13.632;2023-04-15T04:07:55;99498.34;;;16.56;54.89
31121;BME280;17770;45.966;13.632;2023-04-15T04:10:21;99495.72;;;16.56;55.25
31121;BME280;17770;45.966;13.632;2023-04-15T04:12:47;99497.50;;;16.55;55.11
31121;BME280;17770;45.966;13.632;2023-04-15T04:15:13;99494.88;;;16.55;54.69
31121;BME280;17770;45.966;13.632;2023-04-15T04:17:39;99497.50;;;16.55;54.75
31121;BME280;17770;45.966;13.632;2023-04-15T04:20:05;99490.59;;;16.54;55.11
31121;BME280;17770;45.966;13.632;2023-04-15T04:22:35;99499.34;;;16.53;55.10
31121;BME280;17770;45.966;13.632;2023-04-15T04:25:01;99496.75;;;16.53;55.05
31121;BME280;17770;45.966;13.632;2023-04-15T04:27:27;99503.72;;;16.53;54.92
31121;BME280;17770;45.966;13.632;2023-04-15T04:29:53;99501.97;;;16.53;55.14
31121;BME280;17770;45.966;13.632;2023-04-15T04:32:18;99501.22;;;16.51;54.76
31121;BME280;17770;45.966;13.632;2023-04-15T04:34:44;99497.81;;;16.51;55.33
31121;BME280;17770;45.966;13.632;2023-04-15T04:37:10;99492.72;;;16.49;55.09
31121;BME280;17770;45.966;13.632;2023-04-15T04:39:36;99497.91;;;16.49;55.36
31121;BME280;17770;45.966;13.632;2023-04-15T04:42:02;99498.72;;;16.50;55.16
31121;BME280;17770;45.966;13.632;2023-04-15T04:44:28;99502.06;;;16.52;55.03
31121;BME280;17770;45.966;13.632;2023-04-15T04:46:54;99510.81;;;16.51;55.09
31121;BME280;17770;45.966;13.632;2023-04-15T04:49:20;99510.94;;;16.49;55.00
31121;BME280;17770;45.966;13.632;2023-04-15T04:51:45;99512.78;;;16.47;54.92
31121;BME280;17770;45.966;13.632;2023-04-15T04:54:13;99511.94;;;16.47;54.60
31121;BME280;17770;45.966;13.632;2023-04-15T04:56:38;99512.69;;;16.49;54.79
31121;BME280;17770;45.966;13.632;2023-04-15T04:59:04;99512.78;;;16.47;54.70
31121;BME280;17770;45.966;13.632;2023-04-15T05:01:31;99518.81;;;16.48;55.10
31121;BME280;17770;45.966;13.632;2023-04-15T05:03:57;99512.78;;;16.47;55.20
31121;BME280;17770;45.966;13.632;2023-04-15T05:06:23;99518.00;;;16.47;55.26
31121;BME280;17770;45.966;13.632;2023-04-15T05:08:49;99517.06;;;16.48;54.70
31121;BME280;17770;45.966;13.632;2023-04-15T05:11:15;99519.66;;;16.48;55.20
31121;BME280;17770;45.966;13.632;2023-04-15T05:13:41;99524.84;;;16.48;54.56
31121;BME280;17770;45.966;13.632;2023-04-15T05:16:07;99515.41;;;16.47;54.69
31121;BME280;17770;45.966;13.632;2023-04-15T05:18:32;99523.94;;;16.49;54.96
31121;BME280;17770;45.966;13.632;2023-04-15T05:20:59;99516.31;;;16.46;55.00
31121;BME280;17770;45.966;13.632;2023-04-15T05:23:25;99524.84;;;16.48;55.19
31121;BME280;17770;45.966;13.632;2023-04-15T05:25:50;99529.31;;;16.46;54.63
31121;BME280;17770;45.966;13.632;2023-04-15T05:28:16;99523.22;;;16.47;54.54
31121;BME280;17770;45.966;13.632;2023-04-15T05:30:42;99518.09;;;16.46;54.55
31121;BME280;17770;45.966;13.632;2023-04-15T05:33:08;99527.69;;;16.45;54.59
31121;BME280;17770;45.966;13.632;2023-04-15T05:35:34;99527.69;;;16.45;55.14
31121;BME280;17770;45.966;13.632;2023-04-15T05:38:00;99531.13;;;16.46;54.67
31121;BME280;17770;45.966;13.632;2023-04-15T05:40:26;99527.69;;;16.45;54.75
31121;BME280;17770;45.966;13.632;2023-04-15T05:42:51;99532.00;;;16.45;55.02
31121;BME280;17770;45.966;13.632;2023-04-15T05:45:17;99534.59;;;16.45;54.70
31121;BME280;17770;45.966;13.632;2023-04-15T05:47:43;99523.38;;;16.44;54.54
31121;BME280;17770;45.966;13.632;2023-04-15T05:50:09;99530.47;;;16.42;54.55
31121;BME280;17770;45.966;13.632;2023-04-15T05:52:35;99529.50;;;16.43;54.62
31121;BME280;17770;45.966;13.632;2023-04-15T05:55:01;99533.06;;;16.42;54.55
31121;BME280;17770;45.966;13.632;2023-04-15T05:57:27;99538.16;;;16.44;54.84
31121;BME280;17770;45.966;13.632;2023-04-15T05:59:53;99531.19;;;16.44;55.24
31121;BME280;17770;45.966;13.632;2023-04-15T06:02:20;99533.06;;;16.42;55.34
31121;BME280;17770;45.966;13.632;2023-04-15T06:04:45;99536.56;;;16.41;54.79
31121;BME280;17770;45.966;13.632;2023-04-15T06:07:11;99539.91;;;16.43;55.20
31121;BME280;17770;45.966;13.632;2023-04-15T06:09:37;99532.22;;;16.42;54.93
31121;BME280;17770;45.966;13.632;2023-04-15T06:12:03;99546.06;;;16.42;54.73
31121;BME280;17770;45.966;13.632;2023-04-15T06:14:29;99541.78;;;16.41;54.68
31121;BME280;17770;45.966;13.632;2023-04-15T06:16:55;99533.97;;;16.41;54.67
31121;BME280;17770;45.966;13.632;2023-04-15T06:19:20;99545.34;;;16.40;55.18
31121;BME280;17770;45.966;13.632;2023-04-15T06:21:46;99542.63;;;16.42;55.00
31121;BME280;17770;45.966;13.632;2023-04-15T06:24:12;99546.97;;;16.41;54.63
31121;BME280;17770;45.966;13.632;2023-04-15T06:26:38;99539.19;;;16.41;54.77
31121;BME280;17770;45.966;13.632;2023-04-15T06:29:04;99538.38;;;16.41;54.64
31121;BME280;17770;45.966;13.632;2023-04-15T06:31:30;99536.69;;;16.40;54.74
31121;BME280;17770;45.966;13.632;2023-04-15T06:33:56;99531.47;;;16.40;54.77
31121;BME280;17770;45.966;13.632;2023-04-15T06:36:21;99532.31;;;16.40;54.63
31121;BME280;17770;45.966;13.632;2023-04-15T06:38:47;99539.19;;;16.41;54.66
31121;BME280;17770;45.966;13.632;2023-04-15T06:41:13;99535.75;;;16.41;55.16
31121;BME280;17770;45.966;13.632;2023-04-15T06:43:39;99541.06;;;16.39;54.81
31121;BME280;17770;45.966;13.632;2023-04-15T06:46:05;99547.09;;;16.40;54.74
31121;BME280;17770;45.966;13.632;2023-04-15T06:48:30;99544.38;;;16.41;54.57
31121;BME280;17770;45.966;13.632;2023-04-15T06:50:56;99547.94;;;16.40;55.20
31121;BME280;17770;45.966;13.632;2023-04-15T06:53:24;99549.69;;;16.40;54.67
31121;BME280;17770;45.966;13.632;2023-04-15T06:55:51;99543.69;;;16.39;55.00
31121;BME280;17770;45.966;13.632;2023-04-15T06:58:16;99544.50;;;16.40;54.85
31121;BME280;17770;45.966;13.632;2023-04-15T07:00:42;99547.09;;;16.40;55.02
31121;BME280;17770;45.966;13.632;2023-04-15T07:03:11;99541.06;;;16.39;55.12
31121;BME280;17770;45.966;13.632;2023-04-15T07:05:37;99545.44;;;16.39;54.54
31121;BME280;17770;45.966;13.632;2023-04-15T07:08:03;99542.00;;;16.38;54.74
31121;BME280;17770;45.966;13.632;2023-04-15T07:10:29;99545.44;;;16.39;54.93
31121;BME280;17770;45.966;13.632;2023-04-15T07:12:55;99552.28;;;16.40;54.50
31121;BME280;17770;45.966;13.632;2023-04-15T07:15:21;99544.50;;;16.40;55.23
31121;BME280;17770;45.966;13.632;2023-04-15T07:17:48;99546.19;;;16.41;55.01
31121;BME280;17770;45.966;13.632;2023-04-15T07:20:13;99548.88;;;16.39;54.92
31121;BME280;17770;45.966;13.632;2023-04-15T07:22:39;99543.69;;;16.39;54.56
31121;BME280;17770;45.966;13.632;2023-04-15T07:25:05;99552.28;;;16.40;54.56
31121;BME280;17770;45.966;13.632;2023-04-15T07:27:32;99555.84;;;16.39;54.83
31121;BME280;17770;45.966;13.632;2023-04-15T07:29:58;99546.19;;;16.41;54.45
31121;BME280;17770;45.966;13.632;2023-04-15T07:32:23;99548.88;;;16.39;55.09
31121;BME280;17770;45.966;13.632;2023-04-15T07:34:49;99556.75;;;16.38;54.47
31121;BME280;17770;45.966;13.632;2023-04-15T07:37:15;99555.84;;;16.39;55.02
31121;BME280;17770;45.966;13.632;2023-04-15T07:39:41;99550.53;;;16.40;54.47
31121;BME280;17770;45.966;13.632;2023-04-15T07:42:07;99557.50;;;16.40;55.10
31121;BME280;17770;45.966;13.632;2023-04-15T07:44:33;99553.13;;;16.40;54.51
31121;BME280;17770;45.966;13.632;2023-04-15T07:46:59;99556.59;;;16.41;54.43
31121;BME280;17770;45.966;13.632;2023-04-15T07:49:25;99565.03;;;16.44;55.00
31121;BME280;17770;45.966;13.632;2023-04-15T07:51:50;99557.84;;;16.48;54.72
31121;BME280;17770;45.966;13.632;2023-04-15T07:54:16;99561.63;;;16.56;54.49
31121;BME280;17770;45.966;13.632;2023-04-15T07:56:42;99562.88;;;16.63;54.08
31121;BME280;17770;45.966;13.632;2023-04-15T07:59:08;99565.81;;;16.71;53.81
31121;BME280;17770;45.966;13.632;2023-04-15T08:01:34;99564.25;;;16.81;53.68
31121;BME280;17770;45.966;13.632;2023-04-15T08:04:01;99566.84;;;16.94;53.58
31121;BME280;17770;45.966;13.632;2023-04-15T08:06:27;99573.81;;;17.06;53.16
31121;BME280;17770;45.966;13.632;2023-04-15T08:08:53;99561.84;;;17.16;53.04
31121;BME280;17770;45.966;13.632;2023-04-15T08:11:19;99562.03;;;17.26;52.70
31121;BME280;17770;45.966;13.632;2023-04-15T08:13:46;99572.84;;;17.32;52.41
31121;BME280;17770;45.966;13.632;2023-04-15T08:16:16;99559.53;;;17.37;52.67
31121;BME280;17770;45.966;13.632;2023-04-15T08:18:43;99562.66;;;17.42;52.58
31121;BME280;17770;45.966;13.632;2023-04-15T08:21:09;99569.09;;;17.49;52.18
31121;BME280;17770;45.966;13.632;2023-04-15T08:23:35;99567.22;;;17.51;52.16
31121;BME280;17770;45.966;13.632;2023-04-15T08:26:01;99564.41;;;17.54;52.07
31121;BME280;17770;45.966;13.632;2023-04-15T08:28:27;99567.72;;;17.56;52.30
31121;BME280;17770;45.966;13.632;2023-04-15T08:30:53;99568.47;;;17.58;52.10
31121;BME280;17770;45.966;13.632;2023-04-15T08:33:18;99570.00;;;17.60;52.05
31121;BME280;17770;45.966;13.632;2023-04-15T08:35:44;99570.84;;;17.61;52.04
31121;BME280;17770;45.966;13.632;2023-04-15T08:38:10;99574.31;;;17.61;52.06
31121;BME280;17770;45.966;13.632;2023-04-15T08:40:40;99574.19;;;17.63;52.14
31121;BME280;17770;45.966;13.632;2023-04-15T08:43:07;99572.44;;;17.63;51.89
31121;BME280;17770;45.966;13.632;2023-04-15T08:45:34;99570.63;;;17.64;52.16
31121;BME280;17770;45.966;13.632;2023-04-15T08:48:02;99575.84;;;17.64;52.28
31121;BME280;17770;45.966;13.632;2023-04-15T08:50:30;99571.81;;;17.60;52.29
31121;BME280;17770;45.966;13.632;2023-04-15T08:52:59;99578.66;;;17.61;52.32
31121;BME280;17770;45.966;13.632;2023-04-15T08:55:29;99573.56;;;17.59;52.07
31121;BME280;17770;45.966;13.632;2023-04-15T08:57:58;99572.72;;;17.59;52.34
31121;BME280;17770;45.966;13.632;2023-04-15T09:00:24;99572.72;;;17.59;52.10
31121;BME280;17770;45.966;13.632;2023-04-15T09:02:50;99579.75;;;17.58;52.44
31121;BME280;17770;45.966;13.632;2023-04-15T09:05:17;99585.88;;;17.57;52.01
31121;BME280;17770;45.966;13.632;2023-04-15T09:07:42;99579.13;;;17.55;52.20
31121;BME280;17770;45.966;13.632;2023-04-15T09:10:08;99581.72;;;17.55;52.34
31121;BME280;17770;45.966;13.632;2023-04-15T09:12:34;99580.16;;;17.52;52.68
31121;BME280;17770;45.966;13.632;2023-04-15T09:15:01;99581.09;;;17.51;52.65
31121;BME280;17770;45.966;13.632;2023-04-15T09:17:27;99584.56;;;17.52;52.17
31121;BME280;17770;45.966;13.632;2023-04-15T09:20:06;99579.34;;;17.52;52.28
31121;BME280;17770;45.966;13.632;2023-04-15T09:22:32;99582.97;;;17.49;52.35
31121;BME280;17770;45.966;13.632;2023-04-15T09:24:58;99589.94;;;17.49;52.72
31121;BME280;17770;45.966;13.632;2023-04-15T09:27:24;99585.69;;;17.48;52.79
31121;BME280;17770;45.966;13.632;2023-04-15T09:29:49;99584.97;;;17.46;52.75
31121;BME280;17770;45.966;13.632;2023-04-15T09:32:16;99587.56;;;17.46;52.52
31121;BME280;17770;45.966;13.632;2023-04-15T09:34:42;99582.44;;;17.44;52.25
31121;BME280;17770;45.966;13.632;2023-04-15T09:37:09;99592.84;;;17.44;52.82
31121;BME280;17770;45.966;13.632;2023-04-15T09:39:45;99590.38;;;17.43;52.92
31121;BME280;17770;45.966;13.632;2023-04-15T09:42:12;99583.50;;;17.42;53.02
31121;BME280;17770;45.966;13.632;2023-04-15T09:44:38;99587.75;;;17.43;52.80
31121;BME280;17770;45.966;13.632;2023-04-15T09:47:04;99586.91;;;17.42;52.55
31121;BME280;17770;45.966;13.632;2023-04-15T09:49:30;99586.22;;;17.40;52.92
31121;BME280;17770;45.966;13.632;2023-04-15T09:51:58;99581.91;;;17.39;52.99
31121;BME280;17770;45.966;13.632;2023-04-15T09:54:31;99589.75;;;17.39;53.02
31121;BME280;17770;45.966;13.632;2023-04-15T09:57:03;99586.28;;;17.39;52.76
31121;BME280;17770;45.966;13.632;2023-04-15T09:59:29;99595.06;;;17.38;53.26
31121;BME280;17770;45.966;13.632;2023-04-15T10:01:55;99584.63;;;17.38;52.93
31121;BME280;17770;45.966;13.632;2023-04-15T10:04:21;99584.63;;;17.38;52.64
31121;BME280;17770;45.966;13.632;2023-04-15T10:06:48;99588.19;;;17.37;53.15
31121;BME280;17770;45.966;13.632;2023-04-15T10:09:14;99589.13;;;17.36;52.78
31121;BME280;17770;45.966;13.632;2023-04-15T10:11:39;99593.50;;;17.35;53.22
31121;BME280;17770;45.966;13.632;2023-04-15T10:14:07;99592.56;;;17.36;52.88
31121;BME280;17770;45.966;13.632;2023-04-15T10:16:33;99587.47;;;17.35;52.95
31121;BME280;17770;45.966;13.632;2023-04-15T10:19:02;99584.97;;;17.33;53.32
31121;BME280;17770;45.966;13.632;2023-04-15T10:21:29;99586.63;;;17.34;53.10
31121;BME280;17770;45.966;13.632;2023-04-15T10:23:55;99590.19;;;17.33;53.14
31121;BME280;17770;45.966;13.632;2023-04-15T10:26:22;99589.34;;;17.33;53.24
31121;BME280;17770;45.966;13.632;2023-04-15T10:28:49;99591.94;;;17.33;53.33
31121;BME280;17770;45.966;13.632;2023-04-15T10:31:16;99592.06;;;17.31;53.15
31121;BME280;17770;45.966;13.632;2023-04-15T10:33:43;99593.81;;;17.31;53.40
31121;BME280;17770;45.966;13.632;2023-04-15T10:36:09;99590.28;;;17.32;53.22
31121;BME280;17770;45.966;13.632;2023-04-15T10:46:17;99591.22;;;17.31;53.37
31121;BME280;17770;45.966;13.632;2023-04-15T10:48:47;99590.41;;;17.30;53.24
31121;BME280;17770;45.966;13.632;2023-04-15T10:51:13;99585.19;;;17.30;53.28
31121;BME280;17770;45.966;13.632;2023-04-15T10:53:40;99587.78;;;17.30;53.63
31121;BME280;17770;45.966;13.632;2023-04-15T10:56:07;99580.78;;;17.31;53.18
31121;BME280;17770;45.966;13.632;2023-04-15T10:58:42;99584.34;;;17.30;53.20
31121;BME280;17770;45.966;13.632;2023-04-15T11:01:08;99574.03;;;17.28;53.52
31121;BME280;17770;45.966;13.632;2023-04-15T11:03:38;99583.59;;;17.28;53.57
31121;BME280;17770;45.966;13.632;2023-04-15T11:06:04;99582.75;;;17.27;53.56
31121;BME280;17770;45.966;13.632;2023-04-15T11:11:15;99580.25;;;17.26;53.65
31121;BME280;17770;45.966;13.632;2023-04-15T11:13:47;99580.38;;;17.24;53.62
31121;BME280;17770;45.966;13.632;2023-04-15T11:16:13;99582.88;;;17.26;53.26
31121;BME280;17770;45.966;13.632;2023-04-15T11:18:39;99579.56;;;17.24;53.50
31121;BME280;17770;45.966;13.632;2023-04-15T11:21:06;99580.47;;;17.23;53.54
31121;BME280;17770;45.966;13.632;2023-04-15T11:26:01;99591.00;;;17.21;53.66
31121;BME280;17770;45.966;13.632;2023-04-15T11:28:30;99584.97;;;17.21;53.64
31121;BME280;17770;45.966;13.632;2023-04-15T11:30:57;99590.16;;;17.21;53.51
31121;BME280;17770;45.966;13.632;2023-04-15T11:33:23;99579.75;;;17.21;53.84
31121;BME280;17770;45.966;13.632;2023-04-15T11:35:49;99581.44;;;17.22;53.97
31121;BME280;17770;45.966;13.632;2023-04-15T11:38:17;99589.25;;;17.22;53.87
31121;BME280;17770;45.966;13.632;2023-04-15T11:40:43;99582.34;;;17.21;53.68
31121;BME280;17770;45.966;13.632;2023-04-15T11:43:13;99587.56;;;17.21;53.90
31121;BME280;17770;45.966;13.632;2023-04-15T11:48:14;99599.78;;;17.20;53.84
31121;BME280;17770;45.966;13.632;2023-04-15T11:50:40;99614.56;;;17.20;53.52
31121;BME280;17770;45.966;13.632;2023-04-15T11:53:07;99610.22;;;17.20;53.57
31121;BME280;17770;45.966;13.632;2023-04-15T11:56:07;99609.38;;;17.20;54.07
31121;BME280;17770;45.966;13.632;2023-04-15T11:58:25;99613.63;;;17.21;54.04
31121;BME280;17770;45.966;13.632;2023-04-15T12:00:53;99619.78;;;17.20;54.17
31121;BME280;17770;45.966;13.632;2023-04-15T12:11:14;99626.06;;;17.17;53.79
31121;BME280;17770;45.966;13.632;2023-04-15T12:13:45;99625.09;;;17.18;54.00
31121;BME280;17770;45.966;13.632;2023-04-15T12:16:11;99620.00;;;17.17;54.14
31121;BME280;17770;45.966;13.632;2023-04-15T12:18:37;99626.06;;;17.17;54.22
31121;BME280;17770;45.966;13.632;2023-04-15T12:21:07;99616.44;;;17.18;53.89
31121;BME280;17770;45.966;13.632;2023-04-15T12:23:35;99613.09;;;17.16;53.81
31121;BME280;17770;45.966;13.632;2023-04-15T12:26:04;99613.94;;;17.16;53.95
31121;BME280;17770;45.966;13.632;2023-04-15T12:28:29;99614.78;;;17.17;54.26
31121;BME280;17770;45.966;13.632;2023-04-15T12:30:55;99624.38;;;17.16;54.26
31121;BME280;17770;45.966;13.632;2023-04-15T12:33:21;99620.09;;;17.15;53.92
31121;BME280;17770;45.966;13.632;2023-04-15T12:35:47;99618.31;;;17.16;54.36
31121;BME280;17770;45.966;13.632;2023-04-15T12:38:13;99625.22;;;17.17;54.06
31121;BME280;17770;45.966;13.632;2023-04-15T12:40:38;99616.56;;;17.16;53.91
31121;BME280;17770;45.966;13.632;2023-04-15T12:43:05;99612.19;;;17.17;54.08
31121;BME280;17770;45.966;13.632;2023-04-15T12:45:31;99613.84;;;17.18;54.23
31121;BME280;17770;45.966;13.632;2023-04-15T12:47:57;99615.63;;;17.17;53.78
31121;BME280;17770;45.966;13.632;2023-04-15T12:50:23;99613.03;;;17.17;54.26
31121;BME280;17770;45.966;13.632;2023-04-15T12:52:48;99613.72;;;17.19;54.20
31121;BME280;17770;45.966;13.632;2023-04-15T12:55:14;99610.31;;;17.19;54.32
31121;BME280;17770;45.966;13.632;2023-04-15T12:57:41;99608.53;;;17.19;54.02
31121;BME280;17770;45.966;13.632;2023-04-15T13:00:07;99615.41;;;17.20;54.50
31121;BME280;17770;45.966;13.632;2023-04-15T13:02:33;99605.00;;;17.20;54.00
31121;BME280;17770;45.966;13.632;2023-04-15T13:04:59;99598.94;;;17.20;54.29
31121;BME280;17770;45.966;13.632;2023-04-15T13:07:25;99604.16;;;17.20;54.31
31121;BME280;17770;45.966;13.632;2023-04-15T13:09:51;99601.44;;;17.21;54.09